Time;durP1;ratioP1;P1;durP2;ratioP2;P2;SDS_P1;SDS_P2;PMS_P1;PMS_P2;Temp;Humidity;BMP_temperature;BMP_pressure;BME280_temperature;BME280_humidity;BME280_pressure;Samples;Min_cycle;Max_cycle;Signal;HPM_P1;HPM_P2
2023/08/14 00:01:52;;;;;;;2.60;2.40;;;25.00;62.60;26.00;100801.00;;;;5009026;28;20358;-56
2023/08/14 00:04:18;;;;;;;3.25;2.50;;;25.00;62.60;25.90;100803.00;;;;5009018;28;20669;-57
2023/08/14 00:06:43;;;;;;;2.80;2.50;;;25.00;62.70;25.90;100800.00;;;;5008898;28;20263;-57
2023/08/14 00:09:09;;;;;;;2.70;2.20;;;25.00;63.50;25.90;100797.00;;;;5008435;28;20179;-57
2023/08/14 00:11:35;;;;;;;3.03;2.35;;;25.00;62.80;25.90;100809.00;;;;5008430;28;20269;-57
2023/08/14 00:14:01;;;;;;;2.95;2.40;;;25.00;62.80;25.90;100807.00;;;;5008724;28;20660;-56
2023/08/14 00:16:27;;;;;;;2.50;2.28;;;25.00;62.90;25.90;100811.00;;;;5008916;28;20253;-57
2023/08/14 00:18:53;;;;;;;2.65;2.30;;;25.00;62.90;25.80;100811.00;;;;5012263;28;20642;-56
2023/08/14 00:21:19;;;;;;;2.67;2.22;;;25.00;62.90;25.80;100801.00;;;;5011551;28;20208;-56
2023/08/14 00:23:44;;;;;;;2.75;2.28;;;24.90;62.90;25.80;100799.00;;;;5008504;28;20179;-56
2023/08/14 00:26:12;;;;;;;2.83;2.30;;;24.90;62.90;25.80;100806.00;;;;5008392;28;20694;-56
2023/08/14 00:28:38;;;;;;;2.80;2.40;;;25.00;63.10;25.80;100797.00;;;;5008729;28;20241;-57
2023/08/14 00:31:03;;;;;;;2.88;2.35;;;24.90;63.00;25.70;100800.00;;;;5008662;28;20238;-58
2023/08/14 00:33:29;;;;;;;2.58;2.38;;;24.90;63.10;25.70;100797.00;;;;5012415;28;20214;-56
2023/08/14 00:35:55;;;;;;;3.20;2.42;;;24.90;63.10;25.70;100800.00;;;;5013384;28;20237;-56
2023/08/14 00:38:20;;;;;;;2.50;2.30;;;24.80;63.10;25.70;100801.00;;;;5009074;28;20175;-56
2023/08/14 00:40:46;;;;;;;3.28;2.35;;;24.90;63.20;25.70;100798.00;;;;5008719;28;20195;-56
2023/08/14 00:43:12;;;;;;;2.60;2.40;;;24.90;63.30;25.70;100797.00;;;;5009201;28;20202;-57
2023/08/14 00:45:38;;;;;;;2.40;2.20;;;24.90;63.30;25.60;100800.00;;;;5008487;28;20187;-57
2023/08/14 00:48:04;;;;;;;2.80;2.45;;;24.90;63.30;25.60;100801.00;;;;5007073;28;20522;-57
2023/08/14 00:50:30;;;;;;;3.60;2.40;;;24.80;63.30;25.60;100801.00;;;;5008096;28;20265;-57
2023/08/14 00:52:57;;;;;;;2.67;2.30;;;24.80;63.30;25.60;100800.00;;;;5008057;28;20179;-57
2023/08/14 00:55:26;;;;;;;2.70;2.45;;;24.80;63.40;25.60;100800.00;;;;5008163;28;20196;-56
2023/08/14 00:57:54;;;;;;;4.18;2.47;;;24.80;63.40;25.50;100799.00;;;;5008213;28;20195;-57
2023/08/14 01:00:21;;;;;;;3.78;2.63;;;24.80;63.50;25.50;100799.00;;;;5007849;28;20581;-56
2023/08/14 01:02:47;;;;;;;2.60;2.40;;;24.80;63.50;25.50;100792.00;;;;5007825;28;20614;-56
2023/08/14 01:05:13;;;;;;;2.85;2.25;;;24.70;63.50;25.50;100725.00;;;;4974268;28;20254;-56
2023/08/14 01:07:39;;;;;;;2.95;2.60;;;24.70;63.50;25.50;100799.00;;;;5007790;28;20224;-56
2023/08/14 01:10:09;;;;;;;3.25;2.60;;;24.70;63.50;25.40;100790.00;;;;5008061;28;20185;-57
2023/08/14 01:13:01;;;;;;;4.30;2.50;;;24.70;63.50;25.40;100791.00;;;;5006560;28;20195;-56
2023/08/14 01:15:31;;;;;;;3.55;2.35;;;24.70;63.50;25.20;100786.00;;;;5006565;28;20702;-56
2023/08/14 01:18:01;;;;;;;3.67;2.45;;;24.70;63.50;25.40;100793.00;;;;5007913;28;20203;-59
2023/08/14 01:20:32;;;;;;;4.43;2.53;;;24.70;63.50;25.40;100788.00;;;;5007590;28;20175;-56
2023/08/14 01:23:33;;;;;;;4.07;2.30;;;24.70;63.50;25.40;100792.00;;;;5006471;28;20233;-56
2023/08/14 01:25:59;;;;;;;2.92;2.50;;;24.70;63.50;25.30;100796.00;;;;5006154;28;20649;-55
2023/08/14 01:28:25;;;;;;;2.97;2.42;;;24.60;63.40;25.30;100790.00;;;;4990133;28;20238;-57
2023/08/14 01:30:50;;;;;;;3.05;2.33;;;24.70;63.50;25.30;100739.00;;;;5006154;28;20211;-56
2023/08/14 01:33:16;;;;;;;4.40;2.50;;;24.60;63.40;25.30;100785.00;;;;5008118;28;20566;-57
2023/08/14 01:35:44;;;;;;;3.13;2.83;;;24.60;63.40;25.30;100784.00;;;;5007932;28;20172;-56
2023/08/14 01:38:49;;;;;;;3.45;2.60;;;24.60;63.40;25.30;100773.00;;;;5006549;28;20241;-57
2023/08/14 01:41:49;;;;;;;3.58;2.60;;;24.60;63.50;25.20;100753.00;;;;5006408;28;20216;-58
2023/08/14 01:44:16;;;;;;;3.30;2.63;;;24.60;63.60;25.20;100767.00;;;;4993485;28;20229;-57
2023/08/14 01:46:42;;;;;;;3.08;2.47;;;24.50;63.40;25.20;100755.00;;;;5008058;28;20168;-57
2023/08/14 01:49:08;;;;;;;4.68;2.47;;;24.60;63.70;25.20;100755.00;;;;4977809;28;20301;-57
2023/08/14 01:51:34;;;;;;;3.28;2.70;;;24.50;63.50;25.00;100754.00;;;;4977340;28;20356;-57
2023/08/14 01:54:00;;;;;;;4.55;2.53;;;24.50;63.50;25.10;100750.00;;;;5009783;28;20214;-57
2023/08/14 01:56:25;;;;;;;2.72;2.53;;;24.50;63.50;25.10;100742.00;;;;5011219;28;20292;-57
2023/08/14 01:58:51;;;;;;;2.53;2.20;;;24.50;63.60;25.10;100746.00;;;;5011191;28;20175;-57
2023/08/14 02:01:17;;;;;;;3.10;2.40;;;24.50;63.60;25.10;100741.00;;;;5009535;28;20215;-56
2023/08/14 02:03:42;;;;;;;3.65;2.42;;;24.50;63.70;25.10;100743.00;;;;5011088;28;20238;-57
2023/08/14 02:06:08;;;;;;;3.90;2.50;;;24.40;63.50;25.10;100741.00;;;;5010193;28;20179;-57
2023/08/14 02:08:34;;;;;;;3.45;2.50;;;24.40;63.50;25.00;100742.00;;;;5010455;28;20549;-56
2023/08/14 02:11:09;;;;;;;3.70;2.58;;;24.50;63.50;25.00;100744.00;;;;5010378;28;20200;-56
2023/08/14 02:13:34;;;;;;;3.17;2.50;;;24.40;64.30;25.00;100731.00;;;;5010841;28;20186;-56
2023/08/14 02:16:04;;;;;;;2.83;2.50;;;24.40;63.50;25.00;100735.00;;;;5011095;28;20271;-58
2023/08/14 02:18:30;;;;;;;2.70;2.50;;;24.40;63.50;25.00;100735.00;;;;5011243;28;20588;-58
2023/08/14 02:20:56;;;;;;;2.85;2.35;;;24.40;63.50;25.00;100735.00;;;;5010804;28;20203;-57
2023/08/14 02:23:21;;;;;;;4.50;2.70;;;24.40;63.50;24.90;100729.00;;;;5014875;28;20559;-57
2023/08/14 02:25:47;;;;;;;3.97;2.35;;;24.40;63.40;24.90;100732.00;;;;5014701;28;20247;-57
2023/08/14 02:28:13;;;;;;;2.78;2.25;;;24.30;63.80;24.90;100726.00;;;;5011007;28;20263;-57
2023/08/14 02:30:42;;;;;;;3.35;2.58;;;24.30;63.30;24.90;100723.00;;;;5010924;28;20518;-57
2023/08/14 02:33:08;;;;;;;3.42;2.50;;;24.40;63.40;24.90;100719.00;;;;5011115;28;20172;-57
2023/08/14 02:35:36;;;;;;;2.80;2.45;;;24.30;63.40;24.90;100714.00;;;;5010909;28;20255;-57
2023/08/14 02:38:06;;;;;;;2.60;2.40;;;24.30;63.40;24.80;100708.00;;;;5014347;28;20195;-57
2023/08/14 02:40:32;;;;;;;3.35;2.40;;;24.30;63.40;24.80;100707.00;;;;5015662;28;20176;-57
2023/08/14 02:43:01;;;;;;;3.22;2.50;;;24.30;63.40;24.80;100712.00;;;;5009987;28;20230;-57
2023/08/14 02:45:27;;;;;;;4.57;2.45;;;24.30;63.40;24.80;100717.00;;;;5010520;28;20183;-56
2023/08/14 02:47:53;;;;;;;3.05;2.40;;;24.30;63.30;24.80;100714.00;;;;5010657;28;20187;-57
2023/08/14 02:50:21;;;;;;;3.63;2.40;;;24.30;63.40;24.80;100713.00;;;;5010278;28;20542;-56
2023/08/14 02:52:50;;;;;;;2.33;2.13;;;24.20;63.20;24.70;100663.00;;;;5010144;28;20813;-57
2023/08/14 02:55:15;;;;;;;2.58;2.38;;;24.20;63.30;24.70;100722.00;;;;5010211;28;20259;-57
2023/08/14 02:57:41;;;;;;;2.60;2.40;;;24.20;63.30;24.70;100720.00;;;;5009344;28;20625;-57
2023/08/14 03:00:08;;;;;;;3.08;2.45;;;24.20;63.40;24.70;100721.00;;;;5010045;28;20187;-57
2023/08/14 03:02:34;;;;;;;3.38;2.30;;;24.20;63.30;24.70;100719.00;;;;5011321;28;20742;-57
2023/08/14 03:05:00;;;;;;;5.70;2.60;;;24.20;63.20;24.70;100716.00;;;;5011169;28;20183;-56
2023/08/14 03:07:26;;;;;;;2.63;2.42;;;24.10;63.10;24.60;100724.00;;;;5010903;28;20215;-57
2023/08/14 03:09:53;;;;;;;2.75;2.42;;;24.10;63.00;24.60;100717.00;;;;5010827;28;20207;-57
2023/08/14 03:12:18;;;;;;;2.80;2.60;;;24.10;63.10;24.60;100718.00;;;;5011132;28;20287;-57
2023/08/14 03:14:44;;;;;;;3.10;2.50;;;24.10;63.20;24.60;100720.00;;;;5011225;28;20258;-57
2023/08/14 03:17:10;;;;;;;4.43;2.50;;;24.10;63.10;24.60;100721.00;;;;5011016;28;20192;-57
2023/08/14 03:19:35;;;;;;;4.60;2.63;;;24.10;63.20;24.60;100724.00;;;;5009912;28;20191;-57
2023/08/14 03:22:01;;;;;;;3.03;2.42;;;24.00;63.10;24.50;100717.00;;;;5010874;28;20207;-56
2023/08/14 03:24:27;;;;;;;2.60;2.35;;;24.10;63.20;24.50;100719.00;;;;5011321;28;20551;-56
2023/08/14 03:26:53;;;;;;;2.85;2.42;;;24.10;63.60;24.50;100723.00;;;;5011088;28;20187;-56
2023/08/14 03:29:18;;;;;;;3.55;2.40;;;24.00;63.00;24.50;100719.00;;;;5011039;28;20226;-56
2023/08/14 03:31:44;;;;;;;2.83;2.50;;;24.00;63.00;24.50;100713.00;;;;5010180;28;20790;-57
2023/08/14 03:34:10;;;;;;;2.67;2.38;;;24.00;63.00;24.50;100718.00;;;;5010517;28;20188;-57
2023/08/14 03:36:36;;;;;;;2.63;2.40;;;24.00;63.00;24.40;100709.00;;;;5010757;28;20685;-58
2023/08/14 03:39:02;;;;;;;2.58;2.38;;;24.00;63.10;24.40;100719.00;;;;5001288;28;20263;-56
2023/08/14 03:41:27;;;;;;;3.47;2.33;;;23.90;63.90;24.40;100718.00;;;;5009654;28;20294;-57
2023/08/14 03:43:53;;;;;;;3.78;2.70;;;23.90;63.30;24.40;100720.00;;;;5009689;28;20218;-57
2023/08/14 03:46:19;;;;;;;2.53;2.25;;;23.90;63.30;24.40;100727.00;;;;5010363;28;20178;-57
2023/08/14 03:48:45;;;;;;;3.90;2.50;;;23.90;63.30;24.30;100722.00;;;;5010119;28;20168;-57
2023/08/14 03:51:10;;;;;;;6.40;2.75;;;23.90;63.30;24.30;100729.00;;;;5009880;28;20250;-56
2023/08/14 03:53:36;;;;;;;2.58;2.30;;;23.90;63.30;24.30;100728.00;;;;5008830;28;20681;-56
2023/08/14 03:56:02;;;;;;;4.72;2.85;;;23.90;63.30;24.30;100718.00;;;;5009310;28;20180;-56
2023/08/14 03:58:28;;;;;;;3.80;2.63;;;23.80;63.10;24.30;100714.00;;;;5010303;28;20176;-57
2023/08/14 04:00:53;;;;;;;3.03;2.50;;;23.80;63.00;24.30;100713.00;;;;5008811;28;20242;-57
2023/08/14 04:03:19;;;;;;;4.55;2.63;;;23.80;63.00;24.20;100720.00;;;;5009766;28;20550;-56
2023/08/14 04:05:45;;;;;;;2.60;2.40;;;23.80;63.00;24.20;100719.00;;;;5008518;28;20172;-56
2023/08/14 04:08:10;;;;;;;3.37;2.57;;;23.80;63.00;24.20;100716.00;;;;5009412;28;20176;-56
2023/08/14 04:10:37;;;;;;;3.67;2.70;;;23.80;63.20;24.20;100714.00;;;;5008247;28;20183;-57
2023/08/14 04:13:02;;;;;;;3.47;2.37;;;23.80;63.10;24.20;100716.00;;;;5009285;28;20207;-56
2023/08/14 04:15:28;;;;;;;3.73;2.50;;;23.80;63.10;24.20;100711.00;;;;5009405;28;20183;-57
2023/08/14 04:17:55;;;;;;;2.60;2.40;;;23.80;63.00;24.20;100708.00;;;;5008955;28;20199;-57
2023/08/14 04:20:21;;;;;;;3.73;2.73;;;23.70;62.90;24.10;100702.00;;;;5009607;28;20237;-57
2023/08/14 04:22:46;;;;;;;3.28;2.38;;;23.80;63.10;24.10;100705.00;;;;5009288;28;20211;-56
2023/08/14 04:25:12;;;;;;;3.63;2.50;;;23.70;63.00;24.10;100713.00;;;;5008639;28;20179;-56
2023/08/14 04:27:38;;;;;;;3.87;2.47;;;23.70;63.00;24.10;100698.00;;;;5013924;28;20532;-56
2023/08/14 04:30:05;;;;;;;2.75;2.47;;;23.70;63.00;24.10;100697.00;;;;5009748;28;20190;-56
2023/08/14 04:32:31;;;;;;;2.60;2.40;;;23.70;63.10;24.10;100693.00;;;;5009124;28;20721;-56
2023/08/14 04:34:57;;;;;;;3.33;2.60;;;23.70;63.10;24.00;100710.00;;;;5009391;28;20624;-56
2023/08/14 04:37:23;;;;;;;2.67;2.40;;;23.60;62.90;24.00;100708.00;;;;5008285;28;20207;-56
2023/08/14 04:39:49;;;;;;;3.73;2.67;;;23.60;63.00;24.00;100715.00;;;;5009387;28;20184;-56
2023/08/14 04:42:14;;;;;;;3.85;2.50;;;23.60;63.90;24.00;100714.00;;;;5009633;28;20208;-62
2023/08/14 04:44:40;;;;;;;4.70;2.47;;;23.60;63.00;24.00;100709.00;;;;5009871;28;20175;-57
2023/08/14 04:47:06;;;;;;;3.03;2.50;;;23.60;63.00;24.00;100697.00;;;;5008039;28;20712;-57
2023/08/14 04:49:31;;;;;;;3.43;2.60;;;23.60;62.90;23.90;100706.00;;;;5009248;28;20187;-57
2023/08/14 04:51:57;;;;;;;2.50;2.30;;;23.60;62.90;23.90;100707.00;;;;5008704;28;20206;-56
2023/08/14 04:54:23;;;;;;;3.13;2.77;;;23.50;62.80;23.90;100700.00;;;;5008901;28;20776;-57
2023/08/14 04:56:48;;;;;;;4.03;2.50;;;23.60;62.90;23.90;100682.00;;;;5009079;28;20262;-57
2023/08/14 04:59:14;;;;;;;3.50;2.60;;;23.60;62.90;23.90;100679.00;;;;5008865;28;20177;-56
2023/08/14 05:01:40;;;;;;;2.87;2.57;;;23.50;62.80;23.80;100689.00;;;;5007452;28;20207;-57
2023/08/14 05:04:06;;;;;;;3.23;2.50;;;23.50;62.80;23.80;100678.00;;;;5008882;28;20175;-56
2023/08/14 05:06:31;;;;;;;3.87;2.77;;;23.50;62.80;23.80;100693.00;;;;5008968;28;20182;-56
2023/08/14 05:08:57;;;;;;;2.70;2.40;;;23.50;62.80;23.80;100691.00;;;;5007758;28;20202;-58
2023/08/14 05:11:24;;;;;;;3.53;2.43;;;23.40;62.90;23.80;100692.00;;;;5008743;28;20573;-55
2023/08/14 05:13:49;;;;;;;4.90;2.50;;;23.40;63.20;23.80;100710.00;;;;5008455;28;20176;-56
2023/08/14 05:16:15;;;;;;;3.40;2.63;;;23.40;63.30;23.70;100695.00;;;;5009484;28;20677;-55
2023/08/14 05:18:41;;;;;;;3.17;2.87;;;23.40;63.40;23.70;100693.00;;;;5008394;28;20199;-56
2023/08/14 05:21:06;;;;;;;2.67;2.33;;;23.40;63.30;23.70;100677.00;;;;5009793;28;20207;-56
2023/08/14 05:23:32;;;;;;;3.13;2.40;;;23.30;63.70;23.70;100670.00;;;;5013471;28;20172;-55
2023/08/14 05:25:58;;;;;;;5.40;2.80;;;23.30;63.70;23.70;100673.00;;;;5012716;28;20225;-55
2023/08/14 05:28:24;;;;;;;2.77;2.40;;;23.30;63.70;23.70;100675.00;;;;5013460;28;20179;-55
2023/08/14 05:30:49;;;;;;;3.43;2.63;;;23.30;63.60;23.70;100684.00;;;;5012703;28;20289;-55
2023/08/14 05:33:15;;;;;;;3.43;2.57;;;23.30;63.50;23.60;100687.00;;;;5012382;28;20773;-55
2023/08/14 05:35:41;;;;;;;6.27;2.70;;;23.30;63.40;23.60;100688.00;;;;5011839;28;20259;-56
2023/08/14 05:38:07;;;;;;;5.33;2.80;;;23.20;63.60;23.60;100683.00;;;;5012708;28;20300;-55
2023/08/14 05:40:32;;;;;;;4.23;2.60;;;23.20;63.80;23.60;100687.00;;;;5012328;28;20179;-55
2023/08/14 05:43:11;;;;;;;4.63;2.60;;;23.20;64.20;23.60;100687.00;;;;5013109;28;20207;-56
2023/08/14 05:45:41;;;;;;;4.07;2.77;;;23.10;64.50;23.60;100690.00;;;;5012143;28;20167;-56
2023/08/14 05:48:06;;;;;;;4.63;2.90;;;23.10;64.60;23.60;100688.00;;;;5012464;28;20294;-56
2023/08/14 05:50:33;;;;;;;4.83;3.00;;;23.00;64.60;23.60;100696.00;;;;5010954;28;20708;-56
2023/08/14 05:53:00;;;;;;;3.03;2.57;;;23.00;64.60;23.60;100676.00;;;;5011852;28;20793;-56
2023/08/14 05:55:26;;;;;;;6.00;2.83;;;23.00;64.70;23.60;100696.00;;;;5012369;28;20184;-56
2023/08/14 05:57:52;;;;;;;3.07;2.77;;;23.00;64.90;23.60;100697.00;;;;5011219;28;20176;-56
2023/08/14 06:00:18;;;;;;;3.40;2.87;;;23.00;64.90;23.60;100684.00;;;;5010823;28;20819;-57
2023/08/14 06:02:44;;;;;;;4.63;2.70;;;23.00;65.10;23.50;100680.00;;;;5010917;28;20211;-56
2023/08/14 06:05:10;;;;;;;3.30;3.00;;;23.00;65.00;23.60;100682.00;;;;5011574;28;20544;-56
2023/08/14 06:07:36;;;;;;;3.00;2.77;;;23.00;65.10;23.50;100629.00;;;;5011795;28;20172;-56
2023/08/14 06:10:03;;;;;;;3.27;2.60;;;23.00;65.10;23.50;100681.00;;;;5007278;28;20187;-55
2023/08/14 06:12:29;;;;;;;3.63;2.50;;;23.00;65.20;23.50;100683.00;;;;5008153;28;20231;-56
2023/08/14 06:14:55;;;;;;;3.10;2.60;;;22.90;65.00;23.50;100685.00;;;;5011571;28;20269;-57
2023/08/14 06:17:21;;;;;;;3.07;2.70;;;23.00;65.40;23.50;100696.00;;;;5010447;28;20673;-56
2023/08/14 06:19:47;;;;;;;3.33;2.90;;;22.90;65.20;23.50;100691.00;;;;5010148;28;20273;-56
2023/08/14 06:22:13;;;;;;;2.97;2.70;;;22.90;65.20;23.50;100692.00;;;;5011327;28;20212;-56
2023/08/14 06:24:38;;;;;;;4.40;2.70;;;23.00;65.40;23.50;100688.00;;;;5007076;28;20581;-56
2023/08/14 06:27:04;;;;;;;2.93;2.50;;;23.00;65.40;23.50;100689.00;;;;5018072;28;20769;-57
2023/08/14 06:29:30;;;;;;;3.00;2.60;;;23.00;65.40;23.50;100692.00;;;;5015318;28;20354;-57
2023/08/14 06:31:57;;;;;;;3.17;2.80;;;22.90;65.50;23.50;100692.00;;;;5010224;28;20199;-56
2023/08/14 06:34:23;;;;;;;2.87;2.67;;;23.00;65.50;23.50;100695.00;;;;5010204;28;20171;-56
2023/08/14 06:36:49;;;;;;;3.77;2.67;;;22.90;65.60;23.50;100692.00;;;;5011460;28;20338;-55
2023/08/14 06:39:15;;;;;;;2.97;2.67;;;23.00;65.70;23.50;100693.00;;;;5010527;28;20263;-55
2023/08/14 06:41:40;;;;;;;3.77;2.97;;;23.00;65.50;23.50;100697.00;;;;5017877;28;20207;-56
2023/08/14 06:44:08;;;;;;;2.90;2.60;;;23.00;65.60;23.50;100686.00;;;;5014522;28;20192;-56
2023/08/14 06:46:34;;;;;;;2.93;2.60;;;23.00;65.60;23.50;100678.00;;;;5011359;28;20188;-56
2023/08/14 06:49:00;;;;;;;3.40;2.77;;;23.00;65.50;23.50;100664.00;;;;5011192;28;20743;-56
2023/08/14 06:51:26;;;;;;;3.00;2.70;;;23.00;65.60;23.50;100670.00;;;;5010961;28;20227;-56
2023/08/14 06:53:51;;;;;;;3.37;2.70;;;23.00;65.80;23.50;100675.00;;;;5010758;28;20797;-56
2023/08/14 06:56:17;;;;;;;3.10;2.80;;;23.00;65.90;23.50;100682.00;;;;5009906;28;20180;-56
2023/08/14 06:58:43;;;;;;;4.07;2.83;;;22.90;66.00;23.40;100689.00;;;;5011078;28;20785;-56
2023/08/14 07:01:09;;;;;;;3.80;2.60;;;22.80;66.20;23.40;100697.00;;;;5010450;28;20207;-56
2023/08/14 07:03:35;;;;;;;3.03;2.67;;;22.80;66.50;23.40;100700.00;;;;5010663;28;20179;-56
2023/08/14 07:06:01;;;;;;;5.97;3.07;;;22.80;66.70;23.40;100709.00;;;;5010784;28;20175;-56
2023/08/14 07:08:28;;;;;;;4.53;2.70;;;22.80;67.00;23.40;100711.00;;;;5010754;28;20186;-56
2023/08/14 07:10:53;;;;;;;3.00;2.70;;;22.70;66.90;23.30;100699.00;;;;5010503;28;20282;-57
2023/08/14 07:13:19;;;;;;;3.07;2.57;;;22.80;66.90;23.40;100695.00;;;;5008939;28;20255;-56
2023/08/14 07:15:48;;;;;;;3.20;2.70;;;22.90;66.50;23.40;100682.00;;;;5010719;28;20275;-56
2023/08/14 07:18:15;;;;;;;2.90;2.60;;;22.90;66.30;23.40;100674.00;;;;5010556;28;20191;-56
2023/08/14 07:20:41;;;;;;;3.60;2.90;;;23.00;66.40;23.50;100665.00;;;;5010313;28;20179;-55
2023/08/14 07:23:07;;;;;;;2.90;2.70;;;23.00;66.30;23.50;100669.00;;;;5008749;28;20222;-57
2023/08/14 07:25:33;;;;;;;4.00;2.53;;;23.00;66.20;23.50;100670.00;;;;5010274;28;20168;-56
2023/08/14 07:27:58;;;;;;;3.80;2.80;;;23.10;66.30;23.50;100666.00;;;;5009987;28;20182;-55
2023/08/14 07:30:24;;;;;;;5.03;2.73;;;23.10;67.30;23.50;100686.00;;;;5005985;28;20184;-55
2023/08/14 07:32:50;;;;;;;3.30;2.67;;;23.00;66.30;23.50;100676.00;;;;5010006;28;20593;-54
2023/08/14 07:35:16;;;;;;;4.77;2.80;;;23.00;66.40;23.50;100672.00;;;;5008551;28;20190;-57
2023/08/14 07:37:41;;;;;;;3.93;2.90;;;23.00;66.60;23.60;100670.00;;;;5010201;28;20194;-55
2023/08/14 07:40:09;;;;;;;3.20;2.77;;;23.00;66.70;23.60;100679.00;;;;5009385;28;20187;-56
2023/08/14 07:42:34;;;;;;;6.33;2.90;;;23.00;66.90;23.60;100671.00;;;;5010187;28;20246;-57
2023/08/14 07:45:00;;;;;;;4.53;3.00;;;23.00;67.00;23.60;100671.00;;;;5011045;28;20203;-56
2023/08/14 07:47:26;;;;;;;5.07;3.20;;;23.00;67.10;23.60;100673.00;;;;5009771;28;20191;-56
2023/08/14 07:49:52;;;;;;;3.87;3.00;;;23.00;67.20;23.60;100663.00;;;;5011247;28;20172;-59
2023/08/14 07:52:17;;;;;;;3.20;2.90;;;23.00;67.20;23.60;100656.00;;;;5011844;28;20199;-58
2023/08/14 07:54:43;;;;;;;3.50;2.80;;;23.00;67.20;23.60;100654.00;;;;5010414;28;20195;-59
2023/08/14 07:57:09;;;;;;;4.40;3.20;;;23.00;67.20;23.70;100647.00;;;;5007733;28;20700;-58
2023/08/14 07:59:34;;;;;;;3.23;2.90;;;23.00;67.40;23.70;100660.00;;;;5008655;28;20206;-58
2023/08/14 08:02:00;;;;;;;3.10;2.83;;;23.00;67.30;23.70;100655.00;;;;5008695;28;20211;-58
2023/08/14 08:04:29;;;;;;;2.73;2.50;;;23.00;67.50;23.70;100675.00;;;;5008980;28;20203;-58
2023/08/14 08:06:55;;;;;;;3.40;3.10;;;23.00;67.50;23.70;100689.00;;;;5008644;28;20670;-58
2023/08/14 08:09:20;;;;;;;3.87;3.03;;;23.00;67.60;23.70;100686.00;;;;5007987;28;20211;-58
2023/08/14 08:11:46;;;;;;;4.60;2.90;;;23.00;67.60;23.70;100679.00;;;;5007438;28;20764;-58
2023/08/14 08:14:12;;;;;;;4.63;3.10;;;23.00;67.90;23.70;100685.00;;;;5010299;28;20828;-59
2023/08/14 08:16:38;;;;;;;3.30;3.00;;;23.00;68.00;23.70;100697.00;;;;5010146;28;20188;-58
2023/08/14 08:19:06;;;;;;;3.27;2.80;;;23.00;68.10;23.70;100693.00;;;;5010104;28;20192;-58
2023/08/14 08:21:33;;;;;;;4.53;2.83;;;23.00;68.20;23.70;100698.00;;;;5008580;28;20270;-58
2023/08/14 08:23:59;;;;;;;4.13;3.03;;;23.00;68.00;23.70;100691.00;;;;5009933;28;20274;-58
2023/08/14 08:26:25;;;;;;;4.17;3.23;;;23.00;68.00;23.70;100681.00;;;;5009935;28;20661;-63
2023/08/14 08:28:52;;;;;;;3.73;3.03;;;23.00;68.00;23.70;100670.00;;;;5014425;28;20191;-58
2023/08/14 08:31:17;;;;;;;4.23;3.20;;;23.00;68.00;23.70;100671.00;;;;5011559;28;20224;-57
2023/08/14 08:33:43;;;;;;;4.03;2.90;;;23.00;68.20;23.70;100663.00;;;;5008650;28;20184;-57
2023/08/14 08:36:09;;;;;;;3.73;2.87;;;23.00;67.90;23.70;100671.00;;;;5009644;28;20183;-57
2023/08/14 08:38:35;;;;;;;5.57;3.00;;;23.00;67.80;23.70;100618.00;;;;5009555;28;20187;-58
2023/08/14 08:41:02;;;;;;;3.73;2.70;;;23.00;67.90;23.70;100662.00;;;;5009507;28;20227;-57
2023/08/14 08:43:27;;;;;;;4.20;3.00;;;23.00;68.00;23.70;100665.00;;;;5015318;28;20207;-57
2023/08/14 08:45:56;;;;;;;4.10;3.17;;;23.00;68.00;23.70;100665.00;;;;5012724;28;20230;-57
2023/08/14 08:48:22;;;;;;;3.77;2.70;;;23.00;68.00;23.80;100669.00;;;;4992535;28;20179;-57
2023/08/14 08:50:49;;;;;;;3.10;2.70;;;23.00;67.90;23.80;100677.00;;;;4991969;28;20179;-58
2023/08/14 08:53:19;;;;;;;5.03;3.03;;;23.00;68.00;23.80;100677.00;;;;5010211;28;20183;-58
2023/08/14 08:55:48;;;;;;;4.30;2.97;;;23.10;68.00;23.80;100669.00;;;;5008068;28;20708;-58
2023/08/14 08:58:16;;;;;;;4.73;3.03;;;23.10;67.90;23.80;100683.00;;;;4992322;28;20190;-57
2023/08/14 09:00:42;;;;;;;3.67;2.70;;;23.10;68.00;23.80;100679.00;;;;5009419;28;20268;-57
2023/08/14 09:03:09;;;;;;;4.13;2.77;;;23.10;68.10;23.90;100684.00;;;;5005918;28;20685;-57
2023/08/14 09:05:36;;;;;;;4.70;2.80;;;23.10;68.20;23.90;100679.00;;;;5008687;28;20199;-57
2023/08/14 09:08:02;;;;;;;5.10;2.60;;;23.20;68.50;23.90;100689.00;;;;5006811;28;20179;-58
2023/08/14 09:10:28;;;;;;;5.03;3.10;;;23.20;68.50;23.90;100692.00;;;;5008656;28;20551;-58
2023/08/14 09:12:58;;;;;;;4.83;2.80;;;23.10;68.30;23.90;100692.00;;;;5008707;28;20211;-56
2023/08/14 09:15:24;;;;;;;4.43;3.17;;;23.20;68.30;23.90;100687.00;;;;4991712;28;20183;-57
2023/08/14 09:17:53;;;;;;;3.80;2.90;;;23.20;68.00;23.90;100690.00;;;;5008304;28;20281;-59
2023/08/14 09:20:19;;;;;;;4.67;3.13;;;23.20;68.20;24.00;100695.00;;;;5007186;28;20186;-58
2023/08/14 09:22:46;;;;;;;5.17;2.80;;;23.20;68.40;24.00;100686.00;;;;5009065;28;20222;-58
2023/08/14 09:25:12;;;;;;;4.63;3.23;;;23.20;68.50;24.00;100677.00;;;;5007990;28;20175;-58
2023/08/14 09:27:38;;;;;;;4.33;3.20;;;23.20;68.80;24.00;100674.00;;;;5008631;28;20190;-58
2023/08/14 09:30:06;;;;;;;4.60;3.20;;;23.20;67.90;24.00;100671.00;;;;5007115;28;20184;-59
2023/08/14 09:32:32;;;;;;;3.87;3.00;;;23.20;67.00;24.00;100675.00;;;;5007828;28;20247;-61
2023/08/14 09:35:01;;;;;;;4.83;2.60;;;23.20;67.40;24.00;100668.00;;;;5008826;28;20218;-58
2023/08/14 09:37:27;;;;;;;3.88;3.00;;;23.20;67.60;24.00;100647.00;;;;5008287;28;20322;-58
2023/08/14 09:40:16;;;;;;;5.67;3.30;;;23.20;67.40;24.10;100666.00;;;;5008536;28;20698;-58
2023/08/14 09:42:48;;;;;;;4.83;3.30;;;23.30;67.50;24.10;100669.00;;;;5004292;28;20586;-58
2023/08/14 09:45:19;;;;;;;3.67;2.67;;;23.30;67.80;24.10;100654.00;;;;5005008;28;20179;-63
2023/08/14 09:47:45;;;;;;;4.35;2.90;;;23.30;68.30;24.10;100658.00;;;;5009423;28;20179;-58
2023/08/14 09:50:15;;;;;;;5.37;2.97;;;23.30;68.60;24.10;100655.00;;;;5008906;28;20183;-58
2023/08/14 09:52:42;;;;;;;4.80;3.20;;;23.30;67.80;24.10;100648.00;;;;5009167;28;20295;-58
2023/08/14 09:55:08;;;;;;;4.57;3.10;;;23.30;68.20;24.10;100644.00;;;;5009259;28;20196;-58
2023/08/14 09:57:34;;;;;;;4.17;2.87;;;23.30;68.20;24.10;100633.00;;;;4991537;28;20246;-58
2023/08/14 09:59:59;;;;;;;4.33;2.77;;;23.30;68.50;24.10;100649.00;;;;5007830;28;20179;-58
2023/08/14 10:02:25;;;;;;;4.80;3.13;;;23.40;68.80;24.20;100642.00;;;;5008949;28;20234;-59
2023/08/14 10:04:52;;;;;;;4.37;2.90;;;23.40;69.00;24.20;100643.00;;;;5007487;28;20183;-59
2023/08/14 10:07:18;;;;;;;5.00;3.27;;;23.40;68.90;24.20;100640.00;;;;5009524;28;20187;-59
2023/08/14 10:09:48;;;;;;;5.40;3.03;;;23.40;68.20;24.20;100641.00;;;;5011014;28;20180;-60
2023/08/14 10:12:16;;;;;;;4.13;2.87;;;23.40;66.70;24.20;100642.00;;;;5011186;28;20199;-59
2023/08/14 10:14:55;;;;;;;3.45;2.70;;;23.50;67.30;24.20;100632.00;;;;5012352;28;20863;-59
2023/08/14 10:17:25;;;;;;;6.10;2.87;;;23.50;67.70;24.20;100638.00;;;;5011220;28;20202;-59
2023/08/14 10:19:51;;;;;;;3.50;2.60;;;23.50;66.80;24.30;100632.00;;;;4979115;28;20183;-59
2023/08/14 10:22:19;;;;;;;5.13;2.80;;;23.50;67.30;24.30;100627.00;;;;5010907;28;20582;-59
2023/08/14 10:24:45;;;;;;;3.90;2.97;;;23.50;66.80;24.30;100623.00;;;;5011064;28;20230;-58
2023/08/14 10:27:10;;;;;;;5.40;3.00;;;23.50;66.90;24.30;100619.00;;;;4994808;28;20650;-58
2023/08/14 10:29:36;;;;;;;3.70;2.40;;;23.60;67.40;24.30;100618.00;;;;4994759;28;20307;-57
2023/08/14 10:32:02;;;;;;;3.80;2.95;;;23.50;67.80;24.30;100626.00;;;;5015874;28;20279;-58
2023/08/14 10:34:30;;;;;;;4.13;2.93;;;23.60;68.30;24.40;100608.00;;;;5013737;28;20191;-59
2023/08/14 10:36:56;;;;;;;6.28;2.90;;;23.60;68.30;24.40;100632.00;;;;5011175;28;20239;-59
2023/08/14 10:39:31;;;;;;;4.72;2.70;;;23.60;68.30;24.40;100635.00;;;;5011969;28;20334;-59
2023/08/14 10:41:59;;;;;;;3.58;2.92;;;23.60;67.90;24.40;100640.00;;;;5010553;28;20226;-58
2023/08/14 10:44:25;;;;;;;6.35;2.70;;;23.60;67.80;24.40;100639.00;;;;5011340;28;20207;-58
2023/08/14 10:46:50;;;;;;;4.47;3.10;;;23.60;67.00;24.50;100648.00;;;;4982069;28;20233;-58